地図

経路データ

SID SEASON NUMBER BASIN SUBBASIN NAME ISO_TIME NATURE LAT LON WMO_WIND WMO_PRES WMO_AGENCY TRACK_TYPE DIST2LAND LANDFALL IFLAG USA_AGENCY USA_ATCF_ID USA_LAT USA_LON USA_RECORD USA_STATUS USA_WIND USA_PRES USA_SSHS USA_R34_NE USA_R34_SE USA_R34_SW USA_R34_NW USA_R50_NE USA_R50_SE USA_R50_SW USA_R50_NW USA_R64_NE USA_R64_SE USA_R64_SW USA_R64_NW USA_POCI USA_ROCI USA_RMW USA_EYE TOKYO_LAT TOKYO_LON TOKYO_GRADE TOKYO_WIND TOKYO_PRES TOKYO_R50_DIR TOKYO_R50_LONG TOKYO_R50_SHORT TOKYO_R30_DIR TOKYO_R30_LONG TOKYO_R30_SHORT TOKYO_LAND CMA_LAT CMA_LON CMA_CAT CMA_WIND CMA_PRES HKO_LAT HKO_LON HKO_CAT HKO_WIND HKO_PRES NEWDELHI_LAT NEWDELHI_LON NEWDELHI_GRADE NEWDELHI_WIND NEWDELHI_PRES NEWDELHI_CI NEWDELHI_DP NEWDELHI_POCI REUNION_LAT REUNION_LON REUNION_TYPE REUNION_WIND REUNION_PRES REUNION_TNUM REUNION_CI REUNION_RMW REUNION_R34_NE REUNION_R34_SE REUNION_R34_SW REUNION_R34_NW REUNION_R50_NE REUNION_R50_SE REUNION_R50_SW REUNION_R50_NW REUNION_R64_NE REUNION_R64_SE REUNION_R64_SW REUNION_R64_NW BOM_LAT BOM_LON BOM_TYPE BOM_WIND BOM_PRES BOM_TNUM BOM_CI BOM_RMW BOM_R34_NE BOM_R34_SE BOM_R34_SW BOM_R34_NW BOM_R50_NE BOM_R50_SE BOM_R50_SW BOM_R50_NW BOM_R64_NE BOM_R64_SE BOM_R64_SW BOM_R64_NW BOM_ROCI BOM_POCI BOM_EYE BOM_POS_METHOD BOM_PRES_METHOD NADI_LAT NADI_LON NADI_CAT NADI_WIND NADI_PRES WELLINGTON_LAT WELLINGTON_LON WELLINGTON_WIND WELLINGTON_PRES DS824_LAT DS824_LON DS824_STAGE DS824_WIND DS824_PRES TD9636_LAT TD9636_LON TD9636_STAGE TD9636_WIND TD9636_PRES TD9635_LAT TD9635_LON TD9635_WIND TD9635_PRES TD9635_ROCI NEUMANN_LAT NEUMANN_LON NEUMANN_CLASS NEUMANN_WIND NEUMANN_PRES MLC_LAT MLC_LON MLC_CLASS MLC_WIND MLC_PRES USA_GUST BOM_GUST BOM_GUST_PER REUNION_GUST REUNION_GUST_PER USA_SEAHGT USA_SEARAD_NE USA_SEARAD_SE USA_SEARAD_SW USA_SEARAD_NW STORM_SPEED STORM_DIR
1945343S11060 1946 85 SI MM NOT_NAMED 1945-12-09 06:00:00 TS -10.6000 60.3000 main 1099 1084 O________OO___ jtwc_sh SH031946 -10.6000 60.3000 -1 -10.6000 60.3000 TC 25 -10.6000 60.3000 7 13 266
1945343S11060 1946 85 SI MM NOT_NAMED 1945-12-09 09:00:00 TS -10.6442 59.6571 main 1084 1023 P________PP___ SH031946 -10.6528 59.6476 -1 -10.6528 59.6476 TC 25 -10.6271 59.6762 7 13 266
1945343S11060 1946 85 SI MM NOT_NAMED 1945-12-09 12:00:00 TS -10.6876 59.0140 main 1023 960 O________OP___ jtwc_sh SH031946 -10.7000 59.0000 -1 -10.7000 59.0000 TC 25 -10.6629 59.0419 7 13 266
1945343S11060 1946 85 SI MM NOT_NAMED 1945-12-09 15:00:00 TS -10.7340 58.3672 main 960 884 P________PP___ SH031946 -10.7423 58.3574 -1 -10.7423 58.3574 TC 25 -10.7173 58.3867 7 13 265
1945343S11060 1946 85 SI MM NOT_NAMED 1945-12-09 18:00:00 TS -10.8000 57.7000 main 884 807 O________OO___ jtwc_sh SH031946 -10.8000 57.7000 -1 -10.8000 57.7000 TC 25 -10.8000 57.7000 1 14 263
1945343S11060 1946 85 SI MM NOT_NAMED 1945-12-09 21:00:00 TS -10.8953 56.9933 main 807 731 P________PP___ SH031946 -10.8849 57.0000 -1 -10.8849 57.0000 TC 25 -10.9160 56.9799 1 14 261
1945343S11060 1946 85 SI MM NOT_NAMED 1945-12-10 00:00:00 TS -11.0169 56.2869 main 731 652 O________OP___ jtwc_sh SH031946 -11.0000 56.3000 -1 -11.0000 56.3000 TC 25 -11.0506 56.2607 1 14 259
1945343S11060 1946 85 SI MM NOT_NAMED 1945-12-10 03:00:00 TS -11.1666 55.5988 main 652 586 P________PP___ SH031946 -11.1575 55.6051 -1 -11.1575 55.6051 TC 25 -11.1848 55.5861 1 13 257
1945343S11060 1946 85 SI MM NOT_NAMED 1945-12-10 06:00:00 TS -11.3000 55.0000 main 586 541 O________OO___ jtwc_sh SH031946 -11.3000 55.0000 -1 -11.3000 55.0000 TC 25 -11.3000 55.0000 1 10 259
1945343S11060 1946 85 SI MM NOT_NAMED 1945-12-10 09:00:00 TS -11.3613 54.5544 main 541 500 P________PP___ SH031946 -11.3648 54.5474 -1 -11.3648 54.5474 TC 25 -11.3543 54.5683 1 8 263
1945343S11060 1946 85 SI MM NOT_NAMED 1945-12-10 12:00:00 TS -11.3971 54.2081 main 500 470 O________OP___ jtwc_sh SH031946 -11.4000 54.2000 -1 -11.4000 54.2000 TC 25 -11.3912 54.2244 1 6 263
1945343S11060 1946 85 SI MM NOT_NAMED 1945-12-10 15:00:00 TS -11.4341 53.9061 main 470 435 P________PP___ SH031946 -11.4349 53.8999 -1 -11.4349 53.8999 TC 25 -11.4326 53.9183 1 6 260
1945343S11060 1946 85 SI MM NOT_NAMED 1945-12-10 18:00:00 TS -11.5000 53.6000 main 435 391 O________OO___ jtwc_sh SH031946 -11.5000 53.6000 -1 -11.5000 53.6000 TC 25 -11.5000 53.6000 1 7 254
1945343S11060 1946 85 SI MM NOT_NAMED 1945-12-10 21:00:00 TS -11.6331 53.2139 main 391 342 P________PP___ SH031946 -11.6350 53.2225 -1 -11.6350 53.2225 TC 25 -11.6293 53.1967 1 8 250
1945343S11060 1946 85 SI MM NOT_NAMED 1945-12-11 00:00:00 TS -11.7950 52.7909 main 342 298 O________OP___ jtwc_sh SH031946 -11.8000 52.8000 -1 -11.8000 52.8000 TC 25 -11.7849 52.7727 1 9 249
1945343S11060 1946 85 SI MM NOT_NAMED 1945-12-11 03:00:00 TS -11.9544 52.3458 main 283 239 P________PP___ SH031946 -11.9575 52.3500 -1 -11.9575 52.3500 TC 25 -11.9481 52.3373 1 9 251
1945343S11060 1946 85 SI MM NOT_NAMED 1945-12-11 06:00:00 TS -12.1000 51.9000 main 239 195 O________OO___ jtwc_sh SH031946 -12.1000 51.9000 -1 -12.1000 51.9000 TC 25 -12.1000 51.9000 1 9 253
1945343S11060 1946 85 SI MM NOT_NAMED 1945-12-11 09:00:00 TS -12.2042 51.4928 main 195 152 P________PP___ SH031946 -12.2074 51.4999 -1 -12.2074 51.4999 TC 25 -12.1979 51.4786 1 8 256
1945343S11060 1946 85 SI MM NOT_NAMED 1945-12-11 12:00:00 TS -12.2949 51.0856 main 152 109 O________OP___ jtwc_sh SH031946 -12.3000 51.1000 -1 -12.3000 51.1000 TC 25 -12.2847 51.0569 1 8 258
1945343S11060 1946 85 SI MM NOT_NAMED 1945-12-11 15:00:00 TS -12.3830 50.6538 main 109 62 P________PP___ SH031946 -12.3849 50.6649 -1 -12.3849 50.6649 TC 25 -12.3791 50.6317 1 9 257
1945343S11060 1946 85 SI MM NOT_NAMED 1945-12-11 18:00:00 TS -12.5000 50.2000 main 62 10 O________OO___ jtwc_sh SH031946 -12.5000 50.2000 -1 -12.5000 50.2000 TC 25 -12.5000 50.2000 1 10 252
1945343S11060 1946 85 SI MM NOT_NAMED 1945-12-11 21:00:00 TS -12.6846 49.6980 main 10 0 P________PP___ SH031946 -12.6850 49.6926 -1 -12.6850 49.6926 TC 25 -12.6837 49.7089 1 11 248
1945343S11060 1946 85 SI MM NOT_NAMED 1945-12-12 00:00:00 TS -12.8977 49.2061 main 0 0 O________OP___ jtwc_sh SH031946 -12.9000 49.2000 -1 -12.9000 49.2000 TC 25 -12.8930 49.2182 1 10 245
1945343S11060 1946 85 SI MM NOT_NAMED 1945-12-12 03:00:00 TS -13.1069 48.7594 main 0 0 P________PP___ SH031946 -13.1075 48.7550 -1 -13.1075 48.7550 TC 25 -13.1057 48.7683 1 9 243
1945343S11060 1946 85 SI MM NOT_NAMED 1945-12-12 06:00:00 TS -13.3000 48.4000 main 24 22 O________OO___ jtwc_sh SH031946 -13.3000 48.4000 -1 -13.3000 48.4000 TC 25 -13.3000 48.4000 1 7 239
1945343S11060 1946 85 SI MM NOT_NAMED 1945-12-12 09:00:00 TS -13.4573 48.1564 main 15 0 P________PP___ SH031946 -13.4649 48.1549 -1 -13.4649 48.1549 TC 25 -13.4420 48.1593 1 5 233
1945343S11060 1946 85 SI MM NOT_NAMED 1945-12-12 12:00:00 TS -13.5881 48.0007 main 0 0 O________OP___ jtwc_sh SH031946 -13.6000 48.0000 -1 -13.6000 48.0000 TC 25 -13.5644 48.0020 1 4 228
1945343S11060 1946 85 SI MM NOT_NAMED 1945-12-12 15:00:00 TS -13.6932 47.8879 main 0 0 P________PP___ SH031946 -13.7000 47.8849 -1 -13.7000 47.8849 TC 25 -13.6797 47.8938 1 3 223
1945343S11060 1946 85 SI MM NOT_NAMED 1945-12-12 18:00:00 TS -13.8000 47.8000 main 10 10 O________OO___ jtwc_sh SH031946 -13.8000 47.8000 -1 -13.8000 47.8000 TC 25 -13.8000 47.8000 1 3 217
1945343S11060 1946 85 SI MM NOT_NAMED 1945-12-12 21:00:00 TS -13.9344 47.6996 main 21 21 P________PP___ SH031946 -13.9425 47.7075 -1 -13.9425 47.7075 TC 25 -13.9183 47.6838 1 3 216
1945343S11060 1946 85 SI MM NOT_NAMED 1945-12-13 00:00:00 TS -14.0824 47.5907 main 31 31 O________OP___ jtwc_sh SH031946 -14.1000 47.6000 -1 -14.1000 47.6000 TC 25 -14.0473 47.5721 1 4 219
1945343S11060 1946 85 SI MM NOT_NAMED 1945-12-13 03:00:00 TS -14.2242 47.4597 main 31 31 P________PP___ SH031946 -14.2350 47.4649 -1 -14.2350 47.4649 TC 25 -14.2027 47.4493 1 4 222
1945343S11060 1946 85 SI MM NOT_NAMED 1945-12-13 06:00:00 TS -14.4000 47.3000 main 43 31 O________OO___ jtwc_sh SH031946 -14.4000 47.3000 -1 -14.4000 47.3000 TC 25 -14.4000 47.3000 1 5 220
1945343S11060 1946 85 SI MM NOT_NAMED 1945-12-13 09:00:00 TS -14.6296 47.1059 main 39 31 P________PP___ SH031946 -14.6200 47.1149 -1 -14.6200 47.1149 TC 25 -14.6489 47.0878 1 7 218
1945343S11060 1946 85 SI MM NOT_NAMED 1945-12-13 12:00:00 TS -14.9134 46.8835 main 35 15 O________OP___ jtwc_sh SH031946 -14.9000 46.9000 -1 -14.9000 46.9000 TC 25 -14.9402 46.8504 1 8 217
1945343S11060 1946 85 SI MM NOT_NAMED 1945-12-13 15:00:00 TS -15.2438 46.6277 main 22 0 P________PP___ SH031946 -15.2351 46.6351 -1 -15.2351 46.6351 TC 25 -15.2614 46.6127 1 8 214
1945343S11060 1946 85 SI MM NOT_NAMED 1945-12-13 18:00:00 TS -15.6000 46.4000 main 0 0 O________OO___ jtwc_sh SH031946 -15.6000 46.4000 -1 -15.6000 46.4000 TC 25 -15.6000 46.4000 1 8 205
1945343S11060 1946 85 SI MM NOT_NAMED 1945-12-13 21:00:00 TS -15.9450 46.2879 main 10 0 P________PP___ SH031946 -15.9499 46.2848 -1 -15.9499 46.2848 TC 25 -15.9352 46.2941 1 7 195
1945343S11060 1946 85 SI MM NOT_NAMED 1945-12-14 00:00:00 TS -16.2948 46.2029 main 0 0 O________OP___ jtwc_sh SH031946 -16.3000 46.2000 -1 -16.3000 46.2000 TC 25 -16.2843 46.2086 1 7 195
1945343S11060 1946 85 SI MM NOT_NAMED 1945-12-14 03:00:00 TS -16.6470 46.0895 main 0 0 P________PP___ SH031946 -16.6499 46.0873 -1 -16.6499 46.0873 TC 25 -16.6413 46.0939 1 8 202
1945343S11060 1946 85 SI MM NOT_NAMED 1945-12-14 06:00:00 TS -17.0000 45.9000 main 0 0 O________OO___ jtwc_sh SH031946 -17.0000 45.9000 -1 -17.0000 45.9000 TC 25 -17.0000 45.9000 1 9 213
1945343S11060 1946 85 SI MM NOT_NAMED 1945-12-14 09:00:00 TS -17.3580 45.5983 main 0 0 P________PP___ SH031946 -17.3499 45.6024 -1 -17.3499 45.6024 TC 25 -17.3742 45.5901 1 10 223
1945343S11060 1946 85 SI MM NOT_NAMED 1945-12-14 12:00:00 TS -17.7149 45.1977 main 0 0 O________OP___ jtwc_sh SH031946 -17.7000 45.2000 -1 -17.7000 45.2000 TC 25 -17.7447 45.1930 1 11 229
1945343S11060 1946 85 SI MM NOT_NAMED 1945-12-14 15:00:00 TS -18.0742 44.7281 main 0 0 P________PP___ SH031946 -18.0650 44.7300 -1 -18.0650 44.7300 TC 25 -18.0928 44.7243 1 12 234
1945343S11060 1946 85 SI MM NOT_NAMED 1945-12-14 18:00:00 TS -18.4000 44.2000 main 0 0 O________OO___ jtwc_sh SH031946 -18.4000 44.2000 -1 -18.4000 44.2000 TC 25 -18.4000 44.2000 1 12 239
1945343S11060 1946 85 SI MM NOT_NAMED 1945-12-14 21:00:00 TS -18.6710 43.6599 main 46 46 P________PP___ SH031946 -18.6798 43.6723 -1 -18.6798 43.6723 TC 25 -18.6534 43.6351 1 12 245
1945343S11060 1946 85 SI MM NOT_NAMED 1945-12-15 00:00:00 TS -18.8872 43.0801 main 110 110 O________OP___ jtwc_sh SH031946 -18.9000 43.1000 -1 -18.9000 43.1000 TC 25 -18.8617 43.0404 1 12 251
1945343S11060 1946 85 SI MM NOT_NAMED 1945-12-15 03:00:00 TS -19.0567 42.4536 main 176 176 P________PP___ SH031946 -19.0656 42.4677 -1 -19.0656 42.4677 TC 25 -19.0391 42.4255 1 13 256
1945343S11060 1946 85 SI MM NOT_NAMED 1945-12-15 06:00:00 TS -19.2000 41.8000 main 248 O________OO___ jtwc_sh SH031946 -19.2000 41.8000 -1 -19.2000 41.8000 TC 25 -19.2000 41.8000 7 13 257

IBTrACS Databaseについて

本データベースは、米国NOAAが公開する1842年以降の世界の熱帯低気圧のベストトラックデータアーカイブInternational Best Track Archive for Climate Stewardship (IBTrACS)を、ウェブで閲覧しやすい形式に変換したものです。

最終更新日:2021-10-08